createdAt,value
2023-05-03T00:00:27.669Z,1.57
2023-05-03T00:03:55.509Z,1.60
2023-05-03T00:07:22.873Z,1.50
2023-05-03T00:10:47.288Z,1.33
2023-05-03T00:14:11.404Z,1.50
2023-05-03T00:17:37.363Z,1.10
2023-05-03T00:21:03.461Z,1.47
2023-05-03T00:24:28.256Z,1.50
2023-05-03T00:27:52.472Z,1.40
2023-05-03T00:31:16.474Z,1.47
2023-05-03T00:34:40.422Z,1.13
2023-05-03T00:38:05.519Z,1.20
2023-05-03T00:41:29.525Z,1.23
2023-05-03T00:44:54.072Z,1.03
2023-05-03T00:48:19.559Z,1.00
2023-05-03T00:51:43.770Z,1.50
2023-05-03T00:55:10.706Z,1.40
2023-05-03T00:58:36.272Z,1.30
2023-05-03T01:02:00.352Z,1.00
2023-05-03T01:05:26.461Z,1.33
2023-05-03T01:09:01.064Z,1.20
2023-05-03T01:12:49.667Z,1.30
2023-05-03T01:16:20.020Z,1.10
2023-05-03T01:19:48.948Z,1.30
2023-05-03T01:23:16.080Z,1.10
2023-05-03T01:26:41.320Z,1.20
2023-05-03T01:30:07.496Z,1.40
2023-05-03T01:33:41.419Z,1.57
2023-05-03T01:37:10.517Z,1.43
2023-05-03T01:40:39.797Z,1.30
2023-05-03T01:44:06.015Z,1.20
2023-05-03T01:47:29.991Z,1.47
2023-05-03T01:50:53.876Z,1.33
2023-05-03T01:54:18.071Z,1.40
2023-05-03T01:57:41.612Z,1.37
2023-05-03T02:01:08.002Z,1.33
2023-05-03T02:04:31.771Z,1.30
2023-05-03T02:07:55.496Z,1.50
2023-05-03T02:11:19.489Z,1.57
2023-05-03T02:14:43.429Z,1.50
2023-05-03T02:18:09.601Z,2.10
2023-05-03T02:21:35.745Z,1.33
2023-05-03T02:24:59.974Z,1.30
2023-05-03T02:28:24.042Z,1.60
2023-05-03T02:31:47.965Z,1.70
2023-05-03T02:35:13.643Z,1.33
2023-05-03T02:38:38.235Z,1.90
2023-05-03T02:42:02.475Z,1.87
2023-05-03T02:45:26.486Z,1.80
2023-05-03T02:48:51.761Z,1.60
2023-05-03T02:52:17.149Z,1.83
2023-05-03T02:55:41.799Z,1.80
2023-05-03T02:59:05.809Z,1.97
2023-05-03T03:02:29.885Z,1.67
2023-05-03T03:05:54.241Z,1.60
2023-05-03T03:09:19.727Z,1.70
2023-05-03T03:12:43.820Z,1.63
2023-05-03T03:16:14.732Z,1.60
2023-05-03T03:19:38.712Z,1.80
2023-05-03T03:23:02.761Z,1.53
2023-05-03T03:26:27.841Z,1.70
2023-05-03T03:29:51.751Z,2.07
2023-05-03T03:33:15.678Z,2.20
2023-05-03T03:36:40.212Z,2.10
2023-05-03T03:40:06.093Z,2.07
2023-05-03T03:43:31.665Z,2.60
2023-05-03T03:46:56.724Z,2.27
2023-05-03T03:50:20.914Z,2.80
2023-05-03T03:53:45.006Z,2.37
2023-05-03T03:57:10.167Z,2.67
2023-05-03T04:00:36.392Z,2.50
2023-05-03T04:04:07.237Z,2.80
2023-05-03T04:07:31.473Z,2.93
2023-05-03T04:10:56.502Z,2.20
2023-05-03T04:14:21.756Z,2.40
2023-05-03T04:17:48.323Z,2.63
2023-05-03T04:21:12.647Z,2.90
2023-05-03T04:24:39.666Z,2.50
2023-05-03T04:28:05.576Z,2.80
2023-05-03T04:31:30.288Z,2.30
2023-05-03T04:34:57.508Z,2.10
2023-05-03T04:38:22.446Z,2.47
2023-05-03T04:41:47.190Z,2.50
2023-05-03T04:45:12.218Z,2.83
2023-05-03T04:48:37.085Z,2.60
2023-05-03T04:52:02.642Z,2.60
2023-05-03T04:55:26.864Z,3.47
2023-05-03T04:58:52.394Z,2.20
2023-05-03T05:02:16.673Z,2.00
2023-05-03T05:05:40.653Z,2.20
2023-05-03T05:09:21.033Z,1.67
2023-05-03T05:12:45.612Z,1.87
2023-05-03T05:16:10.273Z,1.77
2023-05-03T05:19:37.316Z,1.53
2023-05-03T05:23:01.535Z,2.03
2023-05-03T05:26:27.738Z,2.30
2023-05-03T05:29:52.160Z,2.20
2023-05-03T05:33:18.361Z,2.63
2023-05-03T05:36:43.692Z,2.43
2023-05-03T05:40:09.151Z,2.10
2023-05-03T05:43:40.510Z,2.37
2023-05-03T05:47:05.517Z,2.00
2023-05-03T05:50:31.496Z,2.27
2023-05-03T05:53:59.737Z,2.30
2023-05-03T05:57:24.173Z,2.60
2023-05-03T06:00:50.030Z,2.43
2023-05-03T06:04:16.370Z,3.13
2023-05-03T06:07:41.270Z,2.37
2023-05-03T06:11:05.169Z,2.23
2023-05-03T06:14:29.595Z,2.37
2023-05-03T06:17:55.646Z,2.77
2023-05-03T06:21:20.352Z,2.13
2023-05-03T06:24:44.173Z,3.03
2023-05-03T06:28:08.156Z,2.90
2023-05-03T06:31:33.102Z,2.83
2023-05-03T06:34:59.669Z,2.57
2023-05-03T06:38:23.239Z,2.67
2023-05-03T06:41:47.058Z,2.50
2023-05-03T06:45:11.801Z,2.70
2023-05-03T06:48:35.805Z,2.20
2023-05-03T06:52:01.160Z,2.40
2023-05-03T06:55:25.230Z,3.70
2023-05-03T06:58:49.252Z,3.77
2023-05-03T07:02:13.432Z,2.90
2023-05-03T07:05:37.556Z,2.57
2023-05-03T07:09:02.787Z,2.17
2023-05-03T07:12:28.438Z,2.60
2023-05-03T07:15:52.503Z,2.20
2023-05-03T07:19:16.308Z,2.53
2023-05-03T07:22:40.092Z,2.60
2023-05-03T07:26:05.129Z,2.70
2023-05-03T07:29:29.033Z,2.37
2023-05-03T07:32:53.333Z,2.67
2023-05-03T07:36:17.257Z,2.40
2023-05-03T07:39:42.327Z,2.60
2023-05-03T07:43:07.160Z,2.90
2023-05-03T07:46:34.839Z,2.87
2023-05-03T07:49:58.646Z,2.60
2023-05-03T07:53:22.514Z,2.60
2023-05-03T07:56:46.047Z,2.60
2023-05-03T08:00:12.758Z,2.87
2023-05-03T08:03:37.374Z,2.30
2023-05-03T08:07:02.842Z,2.20
2023-05-03T08:10:26.884Z,2.83
2023-05-03T08:13:50.335Z,2.37
2023-05-03T08:17:15.524Z,2.70
2023-05-03T08:20:39.512Z,2.60
2023-05-03T08:24:05.976Z,2.63
2023-05-03T08:27:29.826Z,2.40
2023-05-03T08:30:53.699Z,2.33
2023-05-03T08:34:18.909Z,2.40
2023-05-03T08:37:43.918Z,2.70
2023-05-03T08:41:19.918Z,1.87
2023-05-03T08:44:49.377Z,2.13
2023-05-03T08:48:14.525Z,2.20
2023-05-03T08:51:42.915Z,2.43
2023-05-03T08:55:07.596Z,2.43
2023-05-03T08:58:31.333Z,1.90
2023-05-03T09:01:55.361Z,1.93
2023-05-03T09:05:38.959Z,2.20
2023-05-03T09:09:07.289Z,1.97
2023-05-03T09:12:41.236Z,2.27
2023-05-03T09:16:05.542Z,2.13
2023-05-03T09:19:29.447Z,2.17
2023-05-03T09:22:53.622Z,1.97
2023-05-03T09:26:30.606Z,2.50
2023-05-03T09:29:55.140Z,2.03
2023-05-03T09:33:29.624Z,2.23
2023-05-03T09:36:53.902Z,1.90
2023-05-03T09:40:18.687Z,2.27
2023-05-03T09:43:52.247Z,2.10
2023-05-03T09:47:16.610Z,2.00
2023-05-03T09:50:41.173Z,2.07
2023-05-03T09:54:05.300Z,1.63
2023-05-03T09:57:30.612Z,1.77
2023-05-03T10:00:57.099Z,2.27
2023-05-03T10:04:25.302Z,1.90
2023-05-03T10:07:53.730Z,2.20
2023-05-03T10:11:19.268Z,1.50
2023-05-03T10:14:44.196Z,2.00
2023-05-03T10:18:12.093Z,2.00
2023-05-03T10:21:45.896Z,1.93
2023-05-03T10:25:10.778Z,2.03
2023-05-03T10:28:35.063Z,2.00
2023-05-03T10:31:58.963Z,2.13
2023-05-03T10:35:28.623Z,1.73
2023-05-03T10:38:55.018Z,1.47
2023-05-03T10:42:18.773Z,2.10
2023-05-03T10:45:45.195Z,1.70
2023-05-03T10:49:23.367Z,2.07
2023-05-03T10:52:49.782Z,1.83
2023-05-03T10:56:15.681Z,2.00
2023-05-03T10:59:50.121Z,2.27
2023-05-03T11:03:38.352Z,2.10
2023-05-03T11:07:04.530Z,1.70
2023-05-03T11:10:29.736Z,1.70
2023-05-03T11:13:54.211Z,1.90
2023-05-03T11:17:18.283Z,1.83
2023-05-03T11:20:42.253Z,1.80
2023-05-03T11:24:06.440Z,2.20
2023-05-03T11:27:31.947Z,1.70
2023-05-03T11:30:55.828Z,1.80
2023-05-03T11:34:19.677Z,1.80
2023-05-03T11:37:44.196Z,1.77
2023-05-03T11:41:16.851Z,1.80
2023-05-03T11:44:42.211Z,1.73
2023-05-03T11:48:06.314Z,1.90
2023-05-03T11:51:31.394Z,1.57
2023-05-03T11:54:55.631Z,1.60
2023-05-03T11:58:21.614Z,1.37
2023-05-03T12:01:49.323Z,1.67
2023-05-03T12:05:14.184Z,1.40
2023-05-03T12:08:41.478Z,2.13
2023-05-03T12:12:09.468Z,1.77
2023-05-03T12:15:37.598Z,1.97
2023-05-03T12:19:03.923Z,1.67
2023-05-03T12:22:30.661Z,1.67
2023-05-03T12:25:56.754Z,1.63
2023-05-03T12:29:23.623Z,1.67
2023-05-03T12:32:48.886Z,1.87
2023-05-03T12:36:15.095Z,1.77
2023-05-03T12:39:39.969Z,1.70
2023-05-03T12:43:05.233Z,1.50
2023-05-03T12:46:34.527Z,1.63
2023-05-03T12:49:59.991Z,1.53
2023-05-03T12:53:26.467Z,1.67
2023-05-03T12:56:54.766Z,1.80
2023-05-03T13:00:24.914Z,1.60
2023-05-03T13:04:23.885Z,1.53
2023-05-03T13:07:43.933Z,1.70
2023-05-03T13:11:09.694Z,1.50
2023-05-03T13:14:33.627Z,1.77
2023-05-03T13:18:01.578Z,1.57
2023-05-03T13:21:28.035Z,1.33
2023-05-03T13:24:52.374Z,1.27
2023-05-03T13:28:23.724Z,1.50
2023-05-03T13:31:47.701Z,1.40
2023-05-03T13:35:12.312Z,1.60
2023-05-03T13:38:36.637Z,1.70
2023-05-03T13:42:01.005Z,1.43
2023-05-03T13:45:25.916Z,1.40
2023-05-03T13:48:49.824Z,1.80
2023-05-03T13:52:13.558Z,1.27
2023-05-03T13:55:37.416Z,1.33
2023-05-03T13:59:01.389Z,1.30
2023-05-03T14:02:27.181Z,1.30
2023-05-03T14:05:51.146Z,1.43
2023-05-03T14:09:14.931Z,1.63
2023-05-03T14:12:38.839Z,1.30
2023-05-03T14:16:02.883Z,1.43
2023-05-03T14:19:28.192Z,1.30
2023-05-03T14:22:52.112Z,1.10
2023-05-03T14:26:16.640Z,1.13
2023-05-03T14:29:40.592Z,1.50
2023-05-03T14:33:04.585Z,1.20
2023-05-03T14:36:43.695Z,1.30
2023-05-03T14:40:08.912Z,1.40
2023-05-03T14:43:33.171Z,1.20
2023-05-03T14:46:58.846Z,1.20
2023-05-03T14:50:22.841Z,1.40
2023-05-03T14:53:48.281Z,1.40
2023-05-03T14:57:12.204Z,1.40
2023-05-03T15:00:39.590Z,1.37
2023-05-03T15:04:04.086Z,1.30
2023-05-03T15:07:28.124Z,1.23
2023-05-03T15:10:53.351Z,1.30
2023-05-03T15:14:18.190Z,1.40
2023-05-03T15:17:42.147Z,1.20
2023-05-03T15:21:07.268Z,1.20
2023-05-03T15:24:31.102Z,1.37
2023-05-03T15:27:56.784Z,1.20
2023-05-03T15:31:20.866Z,1.13
2023-05-03T15:34:44.734Z,1.20
2023-05-03T15:38:08.737Z,1.07
2023-05-03T15:41:32.498Z,1.20
2023-05-03T15:44:57.681Z,1.23
2023-05-03T15:48:21.594Z,1.20
2023-05-03T15:51:45.462Z,1.00
2023-05-03T15:55:10.925Z,1.10
2023-05-03T15:58:34.888Z,1.03
2023-05-03T16:02:00.294Z,1.10
2023-05-03T16:05:24.785Z,1.27
2023-05-03T16:08:49.195Z,1.30
2023-05-03T16:12:12.690Z,1.10
2023-05-03T16:15:36.737Z,1.10
2023-05-03T16:19:01.899Z,1.13
2023-05-03T16:22:26.938Z,1.10
2023-05-03T16:25:50.982Z,1.17
2023-05-03T16:29:14.872Z,1.33
2023-05-03T16:32:38.731Z,1.23
2023-05-03T16:36:03.738Z,1.20
2023-05-03T16:39:27.572Z,1.20
2023-05-03T16:42:51.962Z,1.00
2023-05-03T16:46:15.805Z,1.13
2023-05-03T16:49:39.659Z,1.10
2023-05-03T16:53:04.811Z,1.00
2023-05-03T16:56:29.889Z,0.93
2023-05-03T16:59:53.783Z,1.20
2023-05-03T17:03:17.758Z,1.30
2023-05-03T17:06:41.926Z,0.97
2023-05-03T17:10:08.439Z,1.30
2023-05-03T17:13:32.318Z,1.10
2023-05-03T17:16:56.264Z,1.10
2023-05-03T17:20:20.582Z,1.30
2023-05-03T17:23:44.397Z,1.20
2023-05-03T17:27:11.267Z,1.20
2023-05-03T17:30:34.764Z,1.10
2023-05-03T17:33:59.532Z,1.10
2023-05-03T17:37:23.915Z,1.10
2023-05-03T17:40:47.754Z,1.27
2023-05-03T17:44:14.337Z,1.40
2023-05-03T17:47:38.364Z,1.30
2023-05-03T17:51:02.304Z,1.43
2023-05-03T17:54:26.239Z,1.50
2023-05-03T17:57:49.672Z,1.60
2023-05-03T18:01:15.754Z,1.50
2023-05-03T18:04:40.020Z,1.23
2023-05-03T18:08:03.990Z,1.53
2023-05-03T18:11:27.909Z,1.33
2023-05-03T18:14:51.726Z,1.20
2023-05-03T18:18:16.707Z,1.63
2023-05-03T18:21:40.488Z,1.27
2023-05-03T18:25:07.329Z,1.40
2023-05-03T18:28:31.668Z,1.10
2023-05-03T18:31:55.527Z,1.20
2023-05-03T18:35:20.750Z,1.30
2023-05-03T18:38:46.757Z,1.20
2023-05-03T18:42:11.185Z,1.53
2023-05-03T18:45:37.788Z,1.53
2023-05-03T18:49:03.811Z,1.43
2023-05-03T18:52:29.254Z,1.10
2023-05-03T18:55:53.134Z,1.00
2023-05-03T18:59:16.933Z,1.00
2023-05-03T19:02:40.828Z,1.13
2023-05-03T19:06:07.340Z,0.90
2023-05-03T19:09:32.564Z,1.27
2023-05-03T19:12:57.271Z,1.47
2023-05-03T19:16:21.222Z,1.30
2023-05-03T19:19:45.092Z,1.57
2023-05-03T19:23:08.674Z,1.27
2023-05-03T19:26:33.949Z,1.33
2023-05-03T19:29:57.998Z,1.07
2023-05-03T19:33:22.237Z,1.23
2023-05-03T19:36:46.183Z,1.30
2023-05-03T19:40:11.331Z,1.50
2023-05-03T19:43:36.660Z,1.20
2023-05-03T19:47:00.706Z,1.10
2023-05-03T19:50:24.730Z,1.07
2023-05-03T19:53:49.173Z,1.10
2023-05-03T19:57:13.125Z,1.10
2023-05-03T20:00:38.669Z,1.20
2023-05-03T20:04:02.685Z,1.13
2023-05-03T20:07:26.472Z,1.00
2023-05-03T20:10:50.365Z,1.10
2023-05-03T20:14:14.223Z,1.23
2023-05-03T20:17:39.498Z,1.00
2023-05-03T20:21:03.523Z,1.13
2023-05-03T20:24:27.660Z,1.13
2023-05-03T20:27:51.468Z,1.37
2023-05-03T20:31:15.471Z,1.30
2023-05-03T20:34:42.541Z,1.23
2023-05-03T20:38:06.527Z,1.53
2023-05-03T20:41:30.456Z,1.30
2023-05-03T20:44:54.796Z,1.33
2023-05-03T20:48:18.759Z,1.20
2023-05-03T20:51:43.982Z,1.53
2023-05-03T20:55:08.319Z,1.10
2023-05-03T20:58:31.819Z,1.70
2023-05-03T21:01:55.862Z,1.30
2023-05-03T21:05:19.917Z,1.03
2023-05-03T21:08:45.221Z,1.20
2023-05-03T21:12:09.561Z,1.20
2023-05-03T21:15:33.407Z,1.30
2023-05-03T21:18:57.087Z,1.10
2023-05-03T21:22:21.036Z,1.33
2023-05-03T21:25:46.170Z,1.30
2023-05-03T21:29:10.085Z,1.50
2023-05-03T21:32:34.752Z,1.50
2023-05-03T21:35:58.631Z,1.40
2023-05-03T21:39:22.444Z,1.10
2023-05-03T21:42:47.688Z,1.13
2023-05-03T21:46:11.573Z,1.40
2023-05-03T21:49:35.331Z,1.37
2023-05-03T21:52:59.182Z,1.60
2023-05-03T21:56:23.030Z,1.60
2023-05-03T21:59:49.390Z,1.20
2023-05-03T22:03:14.978Z,1.40
2023-05-03T22:06:40.498Z,1.37
2023-05-03T22:10:05.208Z,1.13
2023-05-03T22:13:29.386Z,1.23
2023-05-03T22:16:54.661Z,1.40
2023-05-03T22:20:18.482Z,1.57
2023-05-03T22:23:42.747Z,1.47
2023-05-03T22:27:06.538Z,1.67
2023-05-03T22:30:30.519Z,1.40
2023-05-03T22:33:55.450Z,1.57
2023-05-03T22:37:19.393Z,1.47
2023-05-03T22:40:43.228Z,1.87
2023-05-03T22:44:07.420Z,1.40
2023-05-03T22:47:31.353Z,1.20
2023-05-03T22:50:56.691Z,1.40
2023-05-03T22:54:21.784Z,1.33
2023-05-03T22:57:45.651Z,1.40
2023-05-03T23:01:11.557Z,1.27
2023-05-03T23:04:35.357Z,1.20
2023-05-03T23:08:00.629Z,1.80
2023-05-03T23:11:24.732Z,1.57
2023-05-03T23:14:48.589Z,1.40
2023-05-03T23:18:12.497Z,1.73
2023-05-03T23:21:36.471Z,1.30
2023-05-03T23:25:01.532Z,1.10
2023-05-03T23:28:25.634Z,1.47
2023-05-03T23:31:49.984Z,1.60
2023-05-03T23:35:15.060Z,1.40
2023-05-03T23:38:38.981Z,1.60
2023-05-03T23:42:03.798Z,1.43
2023-05-03T23:45:27.898Z,1.53
2023-05-03T23:48:51.807Z,1.37
2023-05-03T23:52:16.940Z,1.30
2023-05-03T23:55:40.693Z,1.30
2023-05-03T23:59:06.344Z,1.53
